createdAt,value
2019-02-21T00:01:45.750Z,30.23
2019-02-21T00:05:52.685Z,25.97
2019-02-21T00:09:59.521Z,24.10
2019-02-21T00:14:07.650Z,27.57
2019-02-21T00:18:14.503Z,25.03
2019-02-21T00:22:21.314Z,24.87
2019-02-21T00:26:28.371Z,24.97
2019-02-21T00:30:35.663Z,24.23
2019-02-21T00:34:42.511Z,25.43
2019-02-21T00:38:49.345Z,23.57
2019-02-21T00:42:56.144Z,24.27
2019-02-21T00:47:02.990Z,23.37
2019-02-21T00:51:09.873Z,22.77
2019-02-21T00:55:16.881Z,22.63
2019-02-21T00:59:23.776Z,24.47
2019-02-21T01:03:30.576Z,23.17
2019-02-21T01:07:37.609Z,26.83
2019-02-21T01:11:44.489Z,25.20
2019-02-21T01:15:51.303Z,24.90
2019-02-21T01:19:58.321Z,24.07
2019-02-21T01:24:05.476Z,24.10
2019-02-21T01:28:12.427Z,24.33
2019-02-21T01:32:19.228Z,25.13
2019-02-21T01:36:26.177Z,26.27
2019-02-21T01:40:33.228Z,24.37
2019-02-21T01:44:40.170Z,25.90
2019-02-21T01:48:47.113Z,28.70
2019-02-21T01:52:55.047Z,26.43
2019-02-21T01:57:02.090Z,27.27
2019-02-21T02:01:09.220Z,28.17
2019-02-21T02:05:16.309Z,26.07
2019-02-21T02:09:23.229Z,29.43
2019-02-21T02:13:30.038Z,25.73
2019-02-21T02:17:36.864Z,26.53
2019-02-21T02:21:43.802Z,30.50
2019-02-21T02:25:50.713Z,27.40
2019-02-21T02:29:57.655Z,26.20
2019-02-21T02:34:05.614Z,29.73
2019-02-21T02:38:12.639Z,27.67
2019-02-21T02:42:19.503Z,28.07
2019-02-21T02:46:26.357Z,34.80
2019-02-21T02:50:33.339Z,29.50
2019-02-21T02:54:40.209Z,27.27
2019-02-21T02:58:47.191Z,30.30
2019-02-21T03:02:54.130Z,33.30
2019-02-21T03:07:01.258Z,32.37
2019-02-21T03:11:10.475Z,32.70
2019-02-21T03:15:17.600Z,29.10
2019-02-21T03:19:24.863Z,29.60
2019-02-21T03:23:31.729Z,29.93
2019-02-21T03:27:38.808Z,30.53
2019-02-21T03:31:54.282Z,33.47
2019-02-21T03:35:54.499Z,29.30
2019-02-21T03:40:02.677Z,24.90
2019-02-21T03:44:10.598Z,29.17
2019-02-21T03:48:17.639Z,28.67
2019-02-21T03:52:24.518Z,25.60
2019-02-21T03:56:31.442Z,28.53
2019-02-21T04:00:38.746Z,26.30
2019-02-21T04:04:45.621Z,25.00
2019-02-21T04:08:52.545Z,24.57
2019-02-21T04:12:59.470Z,27.40
2019-02-21T04:17:06.371Z,27.90
2019-02-21T04:21:13.328Z,28.03
2019-02-21T04:25:20.221Z,24.30
2019-02-21T04:29:27.072Z,29.50
2019-02-21T04:33:35.195Z,25.70
2019-02-21T04:37:42.185Z,26.13
2019-02-21T04:41:49.688Z,25.30
2019-02-21T04:45:56.658Z,28.23
2019-02-21T04:50:03.573Z,29.13
2019-02-21T04:54:10.432Z,31.80
2019-02-21T04:58:17.350Z,27.57
2019-02-21T05:02:29.431Z,31.07
2019-02-21T05:06:34.989Z,33.03
2019-02-21T05:10:43.145Z,31.83
2019-02-21T05:14:50.017Z,37.57
2019-02-21T05:18:56.822Z,36.07
2019-02-21T05:23:03.733Z,38.23
2019-02-21T05:27:15.410Z,35.73
2019-02-21T05:31:47.066Z,36.20
2019-02-21T05:36:05.282Z,35.90
2019-02-21T05:40:45.421Z,41.90
2019-02-21T05:45:29.565Z,37.73
2019-02-21T05:49:42.140Z,36.07
2019-02-21T05:54:08.027Z,35.67
2019-02-21T05:58:31.811Z,36.07
2019-02-21T06:02:56.057Z,36.30
2019-02-21T06:07:29.049Z,38.63
2019-02-21T06:11:54.838Z,38.63
2019-02-21T06:16:21.942Z,37.77
2019-02-21T06:20:46.649Z,42.27
2019-02-21T06:25:18.306Z,41.90
2019-02-21T06:29:40.297Z,39.30
2019-02-21T06:33:49.383Z,40.57
2019-02-21T06:37:55.852Z,38.83
2019-02-21T06:42:02.801Z,39.33
2019-02-21T06:46:09.714Z,38.13
2019-02-21T06:50:26.432Z,36.40
2019-02-21T06:54:25.287Z,41.00
2019-02-21T06:58:32.329Z,38.37
2019-02-21T07:02:41.159Z,34.50
2019-02-21T07:06:48.222Z,39.07
2019-02-21T07:11:05.958Z,38.73
2019-02-21T07:15:07.473Z,36.00
2019-02-21T07:19:14.641Z,36.10
2019-02-21T07:23:22.256Z,37.20
2019-02-21T07:27:31.290Z,37.23
2019-02-21T07:31:40.663Z,52.00
2019-02-21T07:35:47.914Z,35.17
2019-02-21T07:39:54.923Z,37.70
2019-02-21T07:44:11.672Z,38.03
2019-02-21T07:48:10.554Z,37.53
2019-02-21T07:52:17.709Z,33.83
2019-02-21T07:56:24.536Z,36.43
2019-02-21T08:00:35.710Z,32.87
2019-02-21T08:04:49.791Z,32.63
2019-02-21T08:08:56.855Z,34.70
2019-02-21T08:13:03.735Z,36.77
2019-02-21T08:17:10.629Z,38.07
2019-02-21T08:21:17.549Z,31.90
2019-02-21T08:25:24.601Z,33.87
2019-02-21T08:29:32.898Z,35.60
2019-02-21T08:33:58.559Z,38.63
2019-02-21T08:38:03.127Z,47.70
2019-02-21T08:42:10.160Z,37.13
2019-02-21T08:46:18.299Z,35.47
2019-02-21T08:50:25.584Z,37.57
2019-02-21T08:54:33.715Z,34.07
2019-02-21T08:58:40.902Z,37.10
2019-02-21T09:02:47.986Z,35.93
2019-02-21T09:06:55.237Z,36.37
2019-02-21T09:11:04.014Z,38.80
2019-02-21T09:15:14.871Z,39.30
2019-02-21T09:19:23.402Z,35.90
2019-02-21T09:23:30.437Z,35.27
2019-02-21T09:27:37.357Z,36.83
2019-02-21T09:31:44.432Z,35.43
2019-02-21T09:35:51.270Z,35.07
2019-02-21T09:39:58.351Z,33.50
2019-02-21T09:44:05.302Z,34.10
2019-02-21T09:48:12.280Z,34.77
2019-02-21T09:52:20.145Z,35.27
2019-02-21T09:56:30.334Z,33.43
2019-02-21T10:00:36.146Z,35.10
2019-02-21T10:04:43.142Z,33.10
2019-02-21T10:08:50.049Z,35.70
2019-02-21T10:12:56.927Z,34.93
2019-02-21T10:17:03.889Z,36.23
2019-02-21T10:21:10.990Z,36.03
2019-02-21T10:25:24.318Z,35.10
2019-02-21T10:29:31.194Z,36.07
2019-02-21T10:33:46.512Z,34.67
2019-02-21T10:37:46.875Z,37.83
2019-02-21T10:41:55.603Z,35.60
2019-02-21T10:46:02.670Z,33.40
2019-02-21T10:50:14.300Z,33.07
2019-02-21T10:54:21.235Z,37.10
2019-02-21T10:58:29.380Z,36.80
2019-02-21T11:02:36.273Z,32.70
2019-02-21T11:06:43.212Z,37.00
2019-02-21T11:10:50.286Z,32.93
2019-02-21T11:14:57.143Z,32.83
2019-02-21T11:19:04.061Z,26.80
2019-02-21T11:23:12.720Z,36.33
2019-02-21T11:27:19.825Z,30.73
2019-02-21T11:31:27.921Z,35.07
2019-02-21T11:35:35.016Z,30.27
2019-02-21T11:39:42.039Z,36.37
2019-02-21T11:43:49.023Z,32.00
2019-02-21T11:47:55.975Z,33.07
2019-02-21T11:52:09.825Z,33.10
2019-02-21T11:56:11.905Z,36.07
2019-02-21T12:00:25.383Z,35.53
2019-02-21T12:04:32.384Z,32.90
2019-02-21T12:08:39.522Z,31.67
2019-02-21T12:12:46.653Z,31.23
2019-02-21T12:16:53.878Z,29.77
2019-02-21T12:21:00.911Z,34.43
2019-02-21T12:25:10.101Z,30.23
2019-02-21T12:29:18.054Z,27.83
2019-02-21T12:33:25.290Z,34.83
2019-02-21T12:37:32.615Z,28.57
2019-02-21T12:41:39.560Z,27.10
2019-02-21T12:45:49.322Z,36.20
2019-02-21T12:49:56.317Z,30.17
2019-02-21T12:54:04.652Z,28.90
2019-02-21T12:58:12.490Z,30.83
2019-02-21T13:02:19.339Z,29.97
2019-02-21T13:06:29.012Z,27.93
2019-02-21T13:10:36.027Z,25.70
2019-02-21T13:14:43.015Z,26.37
2019-02-21T13:18:49.999Z,29.07
2019-02-21T13:22:56.829Z,27.23
2019-02-21T13:27:03.819Z,25.30
2019-02-21T13:31:10.756Z,27.23
2019-02-21T13:35:20.149Z,28.70
2019-02-21T13:39:26.999Z,23.80
2019-02-21T13:43:33.928Z,26.83
2019-02-21T13:47:41.012Z,26.23
2019-02-21T13:51:48.032Z,25.53
2019-02-21T13:55:55.300Z,27.00
2019-02-21T14:00:02.554Z,27.00
2019-02-21T14:04:11.588Z,29.17
2019-02-21T14:08:18.805Z,26.80
2019-02-21T14:12:26.646Z,30.80
2019-02-21T14:16:45.722Z,26.73
2019-02-21T14:20:45.597Z,28.57
2019-02-21T14:24:51.590Z,45.67
2019-02-21T14:29:00.180Z,29.97
2019-02-21T14:33:20.325Z,29.27
2019-02-21T14:37:31.912Z,30.87
2019-02-21T14:41:45.617Z,27.60
2019-02-21T14:45:52.817Z,30.30
2019-02-21T14:50:00.052Z,27.87
2019-02-21T14:54:07.322Z,29.37
2019-02-21T14:58:14.313Z,30.13
2019-02-21T15:02:22.266Z,30.03
2019-02-21T15:06:29.673Z,30.20
2019-02-21T15:10:36.861Z,31.43
2019-02-21T15:14:43.745Z,27.27
2019-02-21T15:18:50.809Z,36.87
2019-02-21T15:22:57.773Z,29.23
2019-02-21T15:27:08.389Z,29.57
2019-02-21T15:31:13.398Z,28.63
2019-02-21T15:35:23.563Z,28.40
2019-02-21T15:39:30.530Z,31.30
2019-02-21T15:43:37.593Z,27.27
2019-02-21T15:47:44.571Z,32.50
2019-02-21T15:51:51.584Z,28.80
2019-02-21T15:55:58.421Z,32.80
2019-02-21T16:00:07.239Z,27.63
2019-02-21T16:04:14.278Z,29.87
2019-02-21T16:08:21.301Z,28.77
2019-02-21T16:12:28.832Z,28.63
2019-02-21T16:16:35.901Z,31.90
2019-02-21T16:20:48.477Z,29.83
2019-02-21T16:24:55.938Z,32.70
2019-02-21T16:29:02.987Z,28.57
2019-02-21T16:33:09.909Z,33.57
2019-02-21T16:37:16.905Z,30.37
2019-02-21T16:41:23.786Z,31.53
2019-02-21T17:01:26.482Z,31.53
2019-02-21T17:05:33.602Z,31.80
2019-02-21T17:09:40.637Z,34.17
2019-02-21T17:13:47.644Z,29.97
2019-02-21T17:17:54.597Z,31.73
2019-02-21T17:22:06.719Z,33.00
2019-02-21T17:26:13.769Z,31.87
2019-02-21T17:30:21.001Z,38.07
2019-02-21T17:34:28.140Z,35.60
2019-02-21T17:38:37.753Z,38.13
2019-02-21T17:42:44.973Z,31.30
2019-02-21T17:46:52.019Z,34.30
2019-02-21T17:51:00.307Z,31.20
2019-02-21T17:55:08.130Z,32.80
2019-02-21T17:59:15.068Z,29.73
2019-02-21T18:03:23.274Z,34.77
2019-02-21T18:07:36.383Z,34.47
2019-02-21T18:11:39.148Z,33.33
2019-02-21T18:15:46.374Z,35.00
2019-02-21T18:19:53.875Z,40.10
2019-02-21T18:24:00.960Z,33.83
2019-02-21T18:28:08.513Z,33.83
2019-02-21T18:32:15.577Z,38.23
2019-02-21T18:36:22.567Z,34.87
2019-02-21T18:40:29.697Z,33.43
2019-02-21T18:44:36.575Z,33.93
2019-02-21T18:48:43.606Z,34.27
2019-02-21T18:52:50.555Z,39.90
2019-02-21T18:56:57.608Z,38.30
2019-02-21T19:01:04.637Z,40.63
2019-02-21T19:05:11.780Z,42.63
2019-02-21T19:09:18.990Z,40.50
2019-02-21T19:13:25.913Z,41.80
2019-02-21T19:17:32.820Z,43.33
2019-02-21T19:21:40.002Z,40.53
2019-02-21T19:25:47.182Z,43.77
2019-02-21T19:29:54.143Z,40.57
2019-02-21T19:34:01.093Z,39.70
2019-02-21T19:38:10.794Z,39.80
2019-02-21T19:42:17.160Z,44.20
2019-02-21T19:46:26.249Z,39.27
2019-02-21T19:50:33.557Z,41.57
2019-02-21T19:54:40.502Z,43.53
2019-02-21T19:58:47.508Z,43.97
2019-02-21T20:02:54.902Z,40.90
2019-02-21T20:07:02.095Z,37.73
2019-02-21T20:11:09.241Z,38.57
2019-02-21T20:15:15.737Z,38.20
2019-02-21T20:19:23.743Z,38.40
2019-02-21T20:23:30.558Z,37.87
2019-02-21T20:27:37.499Z,37.07
2019-02-21T20:31:44.556Z,37.43
2019-02-21T20:35:51.863Z,38.37
2019-02-21T20:39:58.947Z,37.67
2019-02-21T20:44:06.121Z,38.93
2019-02-21T20:48:13.142Z,39.63
2019-02-21T20:52:20.213Z,39.27
2019-02-21T20:56:27.213Z,38.07
2019-02-21T21:00:34.226Z,37.10
2019-02-21T21:04:41.321Z,43.20
2019-02-21T21:08:48.255Z,38.17
2019-02-21T21:12:55.334Z,42.40
2019-02-21T21:17:02.309Z,45.43
2019-02-21T21:21:09.262Z,40.83
2019-02-21T21:25:16.524Z,38.57
2019-02-21T21:29:23.399Z,42.97
2019-02-21T21:33:30.243Z,42.90
2019-02-21T21:37:37.254Z,38.47
2019-02-21T21:41:44.384Z,40.07
2019-02-21T21:45:51.706Z,42.37
2019-02-21T21:49:59.019Z,42.77
2019-02-21T21:54:05.966Z,45.67
2019-02-21T21:58:13.114Z,43.27
2019-02-21T22:02:20.019Z,40.43
2019-02-21T22:06:27.044Z,40.90
2019-02-21T22:10:33.968Z,40.90
2019-02-21T22:14:40.795Z,41.50
2019-02-21T22:18:47.757Z,39.30
2019-02-21T22:22:55.555Z,37.87
2019-02-21T22:27:02.645Z,37.30
2019-02-21T22:31:09.538Z,34.87
2019-02-21T22:35:16.430Z,37.30
2019-02-21T22:39:23.291Z,36.73
2019-02-21T22:43:30.211Z,37.27
2019-02-21T22:47:37.030Z,35.90
2019-02-21T22:51:43.880Z,36.23
2019-02-21T22:55:50.755Z,37.33
2019-02-21T22:59:57.861Z,38.97
2019-02-21T23:05:35.626Z,36.40
2019-02-21T23:09:42.509Z,36.70
2019-02-21T23:13:49.907Z,41.60
2019-02-21T23:17:56.785Z,41.37
2019-02-21T23:22:03.555Z,41.53
2019-02-21T23:26:11.493Z,36.17
2019-02-21T23:30:18.350Z,38.10
2019-02-21T23:34:35.117Z,37.90
2019-02-21T23:38:41.992Z,38.07
2019-02-21T23:42:48.852Z,37.43
2019-02-21T23:46:55.977Z,39.07
2019-02-21T23:51:03.039Z,42.30
2019-02-21T23:55:11.052Z,42.80
2019-02-21T23:59:17.844Z,42.73
